Time;durP1;ratioP1;P1;durP2;ratioP2;P2;SDS_P1;SDS_P2;PMS_P1;PMS_P2;Temp;Humidity;BMP_temperature;BMP_pressure;BME280_temperature;BME280_humidity;BME280_pressure;Samples;Min_cycle;Max_cycle;Signal;HPM_P1;HPM_P2
2023/09/25 00:03:24;;;;;;;4.20;2.33;;;;;;;10.61;100.00;102191.16;10465856;28;20540;-72
2023/09/25 00:08:25;;;;;;;5.95;2.33;;;;;;;10.58;100.00;102181.41;10477623;28;20488;-71
2023/09/25 00:13:25;;;;;;;5.05;2.58;;;;;;;10.58;100.00;102184.16;10480053;28;20074;-72
2023/09/25 00:18:27;;;;;;;3.10;2.40;;;;;;;10.57;100.00;102179.75;10475470;28;20483;-72
2023/09/25 00:23:28;;;;;;;5.40;3.33;;;;;;;10.46;100.00;102172.22;10461867;28;20052;-72
2023/09/25 00:28:28;;;;;;;5.93;3.00;;;;;;;10.58;100.00;102189.69;10476457;28;20120;-72
2023/09/25 00:33:29;;;;;;;6.00;2.72;;;;;;;10.63;100.00;102183.53;10479052;28;20128;-73
2023/09/25 00:38:29;;;;;;;5.75;2.80;;;;;;;10.73;100.00;102189.38;10471733;28;20036;-73
2023/09/25 00:43:29;;;;;;;5.20;2.97;;;;;;;10.84;100.00;102185.06;10465029;28;20040;-72
2023/09/25 00:48:30;;;;;;;4.20;2.60;;;;;;;10.94;100.00;102185.41;10478922;28;20055;-72
2023/09/25 00:53:30;;;;;;;3.88;2.80;;;;;;;11.04;100.00;102184.91;10474320;28;20047;-72
2023/09/25 00:58:31;;;;;;;3.60;2.60;;;;;;;11.15;100.00;102188.84;10479293;28;20044;-72
2023/09/25 01:03:31;;;;;;;5.40;2.30;;;;;;;11.21;100.00;102179.66;10474377;28;20113;-72
2023/09/25 01:08:32;;;;;;;3.17;2.10;;;;;;;11.27;100.00;102189.78;10479758;28;20067;-71
2023/09/25 01:13:32;;;;;;;3.92;2.28;;;;;;;11.30;100.00;102189.31;10468534;28;20514;-72
2023/09/25 01:18:33;;;;;;;5.43;2.50;;;;;;;11.29;100.00;102188.47;10473123;28;20033;-72
2023/09/25 01:23:33;;;;;;;5.30;2.13;;;;;;;11.30;100.00;102183.78;10479768;28;20036;-71
2023/09/25 01:28:34;;;;;;;2.47;1.85;;;;;;;11.29;100.00;102182.13;10478099;28;20393;-72
2023/09/25 01:33:35;;;;;;;3.35;2.25;;;;;;;11.23;100.00;102177.50;10485155;28;20033;-72
2023/09/25 01:38:35;;;;;;;5.47;2.75;;;;;;;11.10;100.00;102165.53;10484990;28;20037;-72
2023/09/25 01:43:36;;;;;;;3.90;2.20;;;;;;;11.06;100.00;102172.56;10483835;28;20663;-72
2023/09/25 01:48:36;;;;;;;4.40;2.53;;;;;;;10.97;100.00;102162.91;10484048;28;20041;-72
2023/09/25 01:53:37;;;;;;;3.78;2.10;;;;;;;10.85;100.00;102159.19;10486195;28;20461;-72
2023/09/25 01:58:38;;;;;;;4.95;2.20;;;;;;;10.78;100.00;102161.16;10483002;28;20404;-72
2023/09/25 02:03:38;;;;;;;4.25;2.95;;;;;;;10.65;100.00;102162.13;10485067;28;20036;-72
2023/09/25 02:08:40;;;;;;;2.67;1.80;;;;;;;10.48;100.00;102159.06;10481234;28;20037;-71
2023/09/25 02:13:41;;;;;;;3.60;2.42;;;;;;;10.39;100.00;102161.22;10482465;28;20032;-72
2023/09/25 02:18:41;;;;;;;4.22;2.22;;;;;;;10.30;100.00;102166.16;10470461;28;20100;-72
2023/09/25 02:23:42;;;;;;;5.47;2.60;;;;;;;10.20;100.00;102167.66;10479297;28;20037;-70
2023/09/25 02:28:42;;;;;;;7.75;4.15;;;;;;;10.20;100.00;102167.66;10484853;28;20048;-71
2023/09/25 02:33:43;;;;;;;4.10;2.92;;;;;;;10.19;100.00;102166.81;10480646;28;20044;-71
2023/09/25 02:38:43;;;;;;;6.32;3.88;;;;;;;10.16;100.00;102160.91;10483998;28;20033;-71
2023/09/25 02:43:44;;;;;;;6.45;3.13;;;;;;;10.20;100.00;102151.16;10476270;28;20053;-72
2023/09/25 02:48:44;;;;;;;5.15;2.97;;;;;;;10.20;100.00;102135.47;10482452;28;20072;-71
2023/09/25 02:53:44;;;;;;;10.30;2.97;;;;;;;10.21;100.00;102142.69;10482788;28;20041;-71
2023/09/25 02:58:45;;;;;;;4.68;3.25;;;;;;;10.18;100.00;102148.59;10481851;28;20036;-72
2023/09/25 03:03:45;;;;;;;7.93;3.92;;;;;;;10.24;100.00;102144.97;10483370;28;20033;-71
2023/09/25 03:08:46;;;;;;;5.10;3.58;;;;;;;10.25;100.00;102137.56;10479619;28;20064;-72
2023/09/25 03:13:46;;;;;;;4.45;3.42;;;;;;;10.29;100.00;102138.81;10481705;28;20041;-72
2023/09/25 03:18:47;;;;;;;5.10;3.10;;;;;;;10.37;100.00;102140.47;10459332;28;20044;-72
2023/09/25 03:23:48;;;;;;;5.20;3.30;;;;;;;10.43;100.00;102142.34;10474348;28;20048;-72
2023/09/25 03:28:48;;;;;;;6.15;3.47;;;;;;;10.41;100.00;102141.72;10485436;28;20041;-69
2023/09/25 03:33:49;;;;;;;4.55;3.47;;;;;;;10.44;100.00;102142.13;10476343;28;20378;-71
2023/09/25 03:38:49;;;;;;;4.15;2.90;;;;;;;10.44;100.00;102141.31;10483347;28;20035;-72
2023/09/25 03:43:49;;;;;;;4.07;2.72;;;;;;;10.35;100.00;102126.09;10473514;28;20447;-72
2023/09/25 03:48:50;;;;;;;5.97;3.80;;;;;;;10.42;100.00;102136.00;10478278;28;20040;-71
2023/09/25 03:53:50;;;;;;;5.32;3.67;;;;;;;10.42;100.00;102138.75;10478232;28;20600;-71
2023/09/25 03:58:51;;;;;;;4.68;3.08;;;;;;;10.43;100.00;102134.09;10480564;28;20409;-72
2023/09/25 04:03:52;;;;;;;5.05;3.30;;;;;;;10.42;100.00;102126.91;10478472;28;20037;-72
2023/09/25 04:08:52;;;;;;;4.70;2.65;;;;;;;10.40;100.00;102129.03;10478029;28;20029;-71
2023/09/25 04:13:53;;;;;;;4.88;2.85;;;;;;;10.37;100.00;102123.97;10461207;28;20040;-73
2023/09/25 04:18:54;;;;;;;7.53;3.50;;;;;;;10.32;100.00;102121.88;10472940;28;20067;-72
2023/09/25 04:23:54;;;;;;;4.65;3.42;;;;;;;10.30;100.00;102119.34;10482547;28;20053;-71
2023/09/25 04:28:55;;;;;;;5.68;3.60;;;;;;;10.28;100.00;102124.19;10474899;28;20034;-71
2023/09/25 04:33:57;;;;;;;4.53;3.30;;;;;;;10.29;100.00;102127.78;10482652;28;20033;-72
2023/09/25 04:38:57;;;;;;;4.05;3.03;;;;;;;10.28;100.00;102121.44;10473494;28;20044;-72
2023/09/25 04:44:01;;;;;;;5.70;3.55;;;;;;;10.29;100.00;102128.69;10474762;28;20037;-72
2023/09/25 04:49:01;;;;;;;4.43;3.00;;;;;;;10.28;100.00;102126.97;10476048;28;20032;-72
2023/09/25 04:54:03;;;;;;;5.63;3.88;;;;;;;10.19;100.00;102111.78;10480231;28;20044;-72
2023/09/25 04:59:05;;;;;;;4.78;3.30;;;;;;;10.31;100.00;102122.94;10474491;28;20044;-72
2023/09/25 05:04:06;;;;;;;7.90;3.63;;;;;;;10.26;100.00;102107.06;10476436;28;20075;-72
2023/09/25 05:09:06;;;;;;;6.38;3.33;;;;;;;10.37;100.00;102123.97;10476171;28;20389;-71
2023/09/25 05:14:07;;;;;;;5.70;3.20;;;;;;;10.42;100.00;102122.25;10476555;28;20044;-72
2023/09/25 05:19:07;;;;;;;3.95;2.72;;;;;;;10.48;100.00;102115.84;10470043;28;20155;-71
2023/09/25 05:24:08;;;;;;;4.45;3.17;;;;;;;10.58;100.00;102125.50;10478282;28;20459;-72
2023/09/25 05:29:08;;;;;;;8.60;3.00;;;;;;;10.68;100.00;102120.34;10475038;28;20536;-73
2023/09/25 05:34:09;;;;;;;5.95;2.60;;;;;;;10.81;100.00;102124.88;10479029;28;20542;-72
2023/09/25 05:39:10;;;;;;;4.93;2.60;;;;;;;10.85;100.00;102137.13;10473964;28;20127;-72
2023/09/25 05:44:11;;;;;;;4.32;2.80;;;;;;;10.91;100.00;102139.00;10480206;28;20103;-68
2023/09/25 05:49:11;;;;;;;5.47;2.28;;;;;;;10.90;100.00;102129.06;10463137;28;20047;-72
2023/09/25 05:54:12;;;;;;;6.18;2.95;;;;;;;11.00;100.00;102142.34;10470456;28;20032;-72
2023/09/25 05:59:12;;;;;;;7.85;2.25;;;;;;;11.13;100.00;102150.47;10478043;28;20040;-73
2023/09/25 06:04:15;;;;;;;5.07;2.65;;;;;;;11.16;100.00;102160.19;10472129;28;20056;-72
2023/09/25 06:09:15;;;;;;;3.80;2.30;;;;;;;11.23;100.00;102156.28;10478291;28;20072;-72
2023/09/25 06:14:16;;;;;;;3.22;2.42;;;;;;;11.26;100.00;102146.72;10463364;28;20049;-71
2023/09/25 06:19:18;;;;;;;3.67;2.35;;;;;;;11.47;100.00;102161.97;10479739;28;20087;-72
2023/09/25 06:24:18;;;;;;;4.40;2.17;;;;;;;11.50;100.00;102134.78;10480127;28;20053;-71
2023/09/25 06:29:21;;;;;;;4.40;2.50;;;;;;;11.63;100.00;102138.47;10482831;28;20032;-72
2023/09/25 06:34:21;;;;;;;3.03;2.38;;;;;;;11.88;100.00;102147.50;10476835;28;20037;-72
2023/09/25 06:39:23;;;;;;;6.25;2.20;;;;;;;11.97;100.00;102152.72;10476465;28;20052;-72
2023/09/25 06:44:23;;;;;;;2.83;2.05;;;;;;;12.10;100.00;102166.34;10482447;28;20052;-72
2023/09/25 06:49:24;;;;;;;5.65;2.53;;;;;;;12.23;100.00;102160.63;10480210;28;20488;-71
2023/09/25 06:54:24;;;;;;;4.78;1.98;;;;;;;12.36;100.00;102153.25;10479714;28;20048;-72
2023/09/25 06:59:26;;;;;;;3.50;1.90;;;;;;;12.10;100.00;102083.53;10469518;28;20116;-71
2023/09/25 07:04:27;;;;;;;2.33;1.77;;;;;;;12.73;100.00;102142.88;10484442;28;20055;-72
2023/09/25 07:09:27;;;;;;;3.22;1.60;;;;;;;12.91;100.00;102140.03;10478088;28;20797;-72
2023/09/25 07:14:27;;;;;;;2.97;1.63;;;;;;;13.02;100.00;102123.69;10483234;28;20036;-65
2023/09/25 07:19:28;;;;;;;2.10;1.50;;;;;;;13.32;100.00;102145.72;10474644;28;20609;-72
2023/09/25 07:24:28;;;;;;;3.78;1.60;;;;;;;13.46;100.00;102140.78;10477113;28;20091;-71
2023/09/25 07:29:31;;;;;;;3.67;1.60;;;;;;;13.62;100.00;102145.56;10481914;28;20041;-72
2023/09/25 07:34:31;;;;;;;5.65;2.50;;;;;;;13.87;100.00;102142.47;10479635;28;20037;-72
2023/09/25 07:39:33;;;;;;;3.08;1.80;;;;;;;13.99;100.00;102133.28;10480529;28;20036;-72
2023/09/25 07:44:34;;;;;;;3.58;1.60;;;;;;;14.16;100.00;102139.72;10477441;28;20127;-72
2023/09/25 07:49:40;;;;;;;7.45;1.23;;;;;;;14.41;100.00;102131.06;10472456;28;20507;-71
2023/09/25 07:54:44;;;;;;;2.47;1.65;;;;;;;14.43;100.00;102125.25;10427818;28;20045;-71
2023/09/25 07:59:45;;;;;;;2.47;1.38;;;;;;;14.53;100.00;102128.19;10449598;28;20040;-72
2023/09/25 08:04:47;;;;;;;2.00;1.27;;;;;;;14.69;100.00;102134.88;10454091;28;20048;-72
2023/09/25 08:09:48;;;;;;;2.90;1.50;;;;;;;14.75;100.00;102124.72;10448557;28;20420;-73
2023/09/25 08:14:48;;;;;;;3.78;1.63;;;;;;;14.93;100.00;102127.25;10446786;28;20049;-71
2023/09/25 08:19:52;;;;;;;2.72;1.40;;;;;;;15.13;100.00;102126.69;10453320;28;20045;-72
2023/09/25 08:24:53;;;;;;;3.15;1.75;;;;;;;15.24;100.00;102127.72;10444462;28;20438;-72
2023/09/25 08:29:53;;;;;;;3.30;1.92;;;;;;;15.42;100.00;102132.97;10447904;28;20042;-72
2023/09/25 08:34:54;;;;;;;3.13;1.23;;;;;;;15.68;100.00;102128.56;10453315;28;20056;-72
2023/09/25 08:39:54;;;;;;;4.57;2.03;;;;;;;15.94;100.00;102113.09;10453514;28;20041;-73
2023/09/25 08:44:59;;;;;;;2.88;1.38;;;;;;;16.11;100.00;102114.94;10471628;28;20041;-74
2023/09/25 08:49:59;;;;;;;2.38;1.20;;;;;;;16.30;100.00;102138.47;10472852;28;20056;-73
2023/09/25 08:55:00;;;;;;;2.45;1.30;;;;;;;16.54;100.00;102135.41;10458509;28;20033;-73
2023/09/25 09:00:11;;;;;;;2.67;1.52;;;;;;;16.64;100.00;102127.16;10464753;28;20408;-72
2023/09/25 09:05:11;;;;;;;4.43;1.30;;;;;;;16.73;100.00;102121.94;10472908;28;20100;-74
2023/09/25 09:10:12;;;;;;;2.72;1.50;;;;;;;16.87;100.00;102111.22;10476342;28;20063;-74
2023/09/25 09:15:23;;;;;;;2.15;1.48;;;;;;;17.10;100.00;102083.00;10475695;28;20052;-72
2023/09/25 09:20:38;;;;;;;3.80;1.02;;;;;;;17.49;100.00;102092.97;10478442;28;20048;-71
2023/09/25 09:25:38;;;;;;;1.40;0.95;;;;;;;17.80;100.00;102091.13;10471486;28;20037;-75
2023/09/25 09:30:39;;;;;;;2.88;0.93;;;;;;;18.14;100.00;102085.09;10465582;28;20064;-74
2023/09/25 09:35:43;;;;;;;2.28;1.17;;;;;;;17.71;100.00;102026.78;10476781;28;20096;-73
2023/09/25 09:40:43;;;;;;;3.65;1.10;;;;;;;17.95;100.00;102060.53;10475293;28;20062;-77
2023/09/25 09:45:44;;;;;;;1.77;1.10;;;;;;;17.89;100.00;102078.34;10477869;28;20453;-73
2023/09/25 09:50:49;;;;;;;1.98;1.00;;;;;;;17.64;100.00;102072.69;10434443;28;20033;-74
2023/09/25 09:55:49;;;;;;;2.38;1.08;;;;;;;17.48;100.00;102075.41;10459721;28;20044;-72
2023/09/25 10:00:50;;;;;;;3.13;1.25;;;;;;;17.45;100.00;102083.47;10453692;28;20391;-73
2023/09/25 10:05:51;;;;;;;2.40;1.20;;;;;;;17.51;100.00;102080.44;10458970;28;20048;-73
2023/09/25 10:10:52;;;;;;;3.33;1.08;;;;;;;18.04;100.00;102079.50;10450871;28;20076;-74
2023/09/25 10:15:56;;;;;;;2.38;1.20;;;;;;;18.41;100.00;102072.88;10447151;28;20044;-73
2023/09/25 10:21:14;;;;;;;5.93;0.98;;;;;;;18.73;100.00;102069.81;10453452;28;20037;-74
2023/09/25 10:26:24;;;;;;;4.45;1.58;;;;;;;19.03;100.00;102076.47;10457774;28;20051;-74
2023/09/25 10:31:29;;;;;;;2.90;1.00;;;;;;;19.48;100.00;102085.84;10454653;28;20148;-73
2023/09/25 10:36:40;;;;;;;4.30;1.15;;;;;;;19.75;100.00;102069.53;10454162;28;20086;-72
2023/09/25 10:41:45;;;;;;;5.85;1.23;;;;;;;19.56;100.00;102055.34;10454405;28;20550;-72
2023/09/25 10:46:46;;;;;;;3.47;1.05;;;;;;;19.45;100.00;102069.63;10450537;28;20052;-71
2023/09/25 10:51:47;;;;;;;2.55;1.00;;;;;;;19.64;100.00;102089.41;10453682;28;20511;-71
2023/09/25 10:56:47;;;;;;;2.45;1.60;;;;;;;20.01;100.00;102071.34;10476941;28;20045;-74
2023/09/25 11:01:48;;;;;;;3.50;1.30;;;;;;;19.86;100.00;102061.09;10481253;28;20048;-73
2023/09/25 11:06:48;;;;;;;7.57;2.40;;;;;;;20.10;100.00;102069.63;10483463;28;20053;-74
2023/09/25 11:11:49;;;;;;;2.58;1.33;;;;;;;20.50;100.00;102101.19;10461479;28;20041;-74
2023/09/25 11:16:50;;;;;;;3.80;1.58;;;;;;;20.71;100.00;102085.09;10474390;28;20444;-71
2023/09/25 11:21:51;;;;;;;4.00;1.02;;;;;;;20.93;100.00;102107.84;10472447;28;20828;-73
2023/09/25 11:26:51;;;;;;;2.83;1.20;;;;;;;20.77;100.00;102097.91;10481789;28;22195;-74
2023/09/25 11:31:51;;;;;;;4.20;1.00;;;;;;;20.88;100.00;102104.28;10475053;28;20030;-74
2023/09/25 11:36:52;;;;;;;2.38;1.33;;;;;;;20.90;100.00;102093.63;10484494;28;20037;-72
2023/09/25 11:41:52;;;;;;;4.40;1.98;;;;;;;21.07;100.00;102093.16;10458684;28;20041;-73
2023/09/25 11:46:53;;;;;;;5.18;1.30;;;;;;;21.13;100.00;102084.41;10480614;28;20052;-75
2023/09/25 11:51:53;;;;;;;2.45;1.02;;;;;;;21.43;100.00;102096.41;10476055;28;20033;-74
2023/09/25 11:56:54;;;;;;;2.90;1.20;;;;;;;21.79;100.00;102103.53;10480708;28;20041;-74
2023/09/25 12:01:54;;;;;;;3.90;1.25;;;;;;;22.35;100.00;102100.78;10478831;28;20052;-73
2023/09/25 12:06:56;;;;;;;2.25;1.17;;;;;;;22.50;100.00;102082.03;10478212;28;20049;-72
2023/09/25 12:11:57;;;;;;;2.40;0.90;;;;;;;22.52;100.00;102082.56;10464954;28;20033;-69
2023/09/25 12:16:58;;;;;;;2.13;0.95;;;;;;;23.34;100.00;102086.72;10475891;28;20562;-78
2023/09/25 12:21:59;;;;;;;1.55;1.10;;;;;;;23.82;100.00;102075.03;10478447;28;20047;-76
2023/09/25 12:26:59;;;;;;;2.80;1.00;;;;;;;24.22;100.00;102082.84;10476500;28;20504;-74
2023/09/25 12:31:59;;;;;;;2.95;1.00;;;;;;;24.28;100.00;102090.84;10481894;28;20526;-75
2023/09/25 12:37:00;;;;;;;2.42;1.25;;;;;;;24.13;100.00;102086.41;10467194;28;20033;-74
2023/09/25 12:42:01;;;;;;;1.80;0.98;;;;;;;24.56;100.00;102087.97;10466376;28;20029;-78
2023/09/25 12:47:02;;;;;;;1.92;0.77;;;;;;;24.66;100.00;102076.44;10468697;28;20101;-79
2023/09/25 12:52:02;;;;;;;6.57;2.08;;;;;;;24.27;98.14;102075.13;10459763;28;20033;-78
2023/09/25 12:57:03;;;;;;;2.88;1.50;;;;;;;23.43;100.00;102090.47;10480088;28;20067;-77
2023/09/25 13:02:03;;;;;;;2.78;1.15;;;;;;;23.15;100.00;102098.88;10474460;28;20040;-77
2023/09/25 13:07:04;;;;;;;5.15;1.00;;;;;;;23.21;100.00;102105.22;10479170;28;20094;-76
2023/09/25 13:12:05;;;;;;;2.60;1.08;;;;;;;22.61;100.00;102096.72;10474183;28;20037;-76
2023/09/25 13:17:05;;;;;;;2.92;1.25;;;;;;;22.15;100.00;102098.28;10457663;28;20101;-67
2023/09/25 13:22:08;;;;;;;2.20;1.05;;;;;;;22.04;100.00;102110.78;10470420;28;25360;-78
2023/09/25 13:27:08;;;;;;;2.58;1.20;;;;;;;22.04;100.00;102116.41;10473032;28;20056;-78
2023/09/25 13:32:09;;;;;;;3.95;1.25;;;;;;;21.61;100.00;102082.78;10482711;28;20396;-78
2023/09/25 13:37:09;;;;;;;2.20;1.08;;;;;;;21.55;100.00;102110.00;10487221;28;20666;-76
2023/09/25 13:42:11;;;;;;;2.30;1.10;;;;;;;21.54;100.00;102097.16;10480969;28;20067;-78
2023/09/25 13:47:11;;;;;;;3.90;1.45;;;;;;;21.92;100.00;102114.84;10478373;28;20055;-78
2023/09/25 13:52:13;;;;;;;3.25;1.00;;;;;;;22.10;100.00;102109.59;10478410;28;20056;-79
2023/09/25 13:57:13;;;;;;;3.35;1.23;;;;;;;22.26;100.00;102111.06;10488085;28;20484;-78
2023/09/25 14:02:14;;;;;;;3.55;1.17;;;;;;;22.45;100.00;102090.53;10481291;28;20033;-77
2023/09/25 14:07:14;;;;;;;2.30;1.40;;;;;;;22.30;100.00;102097.22;10487009;28;20048;-79
2023/09/25 14:12:14;;;;;;;2.22;1.00;;;;;;;22.57;100.00;102096.50;10477585;28;20056;-76
2023/09/25 14:17:15;;;;;;;3.33;1.08;;;;;;;23.05;100.00;102079.41;10478012;28;20062;-78
2023/09/25 14:22:15;;;;;;;3.40;1.25;;;;;;;24.48;100.00;102057.72;10472763;28;20076;-80
2023/09/25 14:27:17;;;;;;;2.72;1.55;;;;;;;25.93;100.00;102064.69;10481207;28;20078;-83
2023/09/25 14:32:17;;;;;;;5.28;1.35;;;;;;;26.19;93.38;102044.94;10483429;28;20090;-83
2023/09/25 14:37:18;;;;;;;2.17;1.02;;;;;;;26.12;93.37;102053.88;10481670;28;20048;-79
2023/09/25 14:42:18;;;;;;;4.75;1.90;;;;;;;26.30;91.29;102037.78;10483923;28;20033;-78
2023/09/25 14:47:20;;;;;;;2.88;1.10;;;;;;;26.73;90.49;102056.69;10469744;28;20040;-78
2023/09/25 14:52:20;;;;;;;2.58;1.10;;;;;;;26.47;89.94;102061.50;10477905;28;20493;-80
2023/09/25 14:57:21;;;;;;;2.35;1.10;;;;;;;24.98;91.35;102072.44;10484933;28;20028;-79
2023/09/25 15:02:22;;;;;;;3.08;1.27;;;;;;;23.77;96.19;102089.19;10478928;28;20037;-78
2023/09/25 15:07:22;;;;;;;4.40;1.10;;;;;;;24.04;100.00;102093.09;10485393;28;20045;-75
2023/09/25 15:12:24;;;;;;;2.72;1.15;;;;;;;24.69;98.61;102078.59;10473912;28;20049;-78
2023/09/25 15:17:27;;;;;;;2.60;1.10;;;;;;;24.23;97.80;102076.91;10465261;28;20584;-75
2023/09/25 15:22:30;;;;;;;3.42;1.02;;;;;;;23.39;99.27;102094.22;10480431;28;20096;-77
2023/09/25 15:27:30;;;;;;;2.70;0.95;;;;;;;22.50;100.00;102079.25;10477673;28;20063;-74
2023/09/25 15:32:30;;;;;;;3.03;1.48;;;;;;;22.07;100.00;102098.94;10481283;28;20106;-75
2023/09/25 15:37:32;;;;;;;6.70;1.92;;;;;;;21.40;100.00;102097.00;10479121;28;20048;-77
2023/09/25 15:42:32;;;;;;;1.90;1.05;;;;;;;20.91;100.00;102112.91;10480813;28;20037;-76
2023/09/25 15:47:33;;;;;;;3.90;1.17;;;;;;;20.54;100.00;102113.47;10461110;28;20040;-76
2023/09/25 15:52:33;;;;;;;1.90;0.98;;;;;;;20.26;100.00;102132.72;10478412;28;20029;-76
2023/09/25 15:57:35;;;;;;;1.27;0.80;;;;;;;20.03;100.00;102139.84;10477931;28;20051;-75
2023/09/25 16:02:35;;;;;;;1.83;1.00;;;;;;;19.73;100.00;102138.84;10442396;28;20174;-71
2023/09/25 16:07:36;;;;;;;4.22;1.10;;;;;;;19.56;100.00;102149.50;10425085;28;20052;-77
2023/09/25 16:12:36;;;;;;;5.80;1.30;;;;;;;19.30;100.00;102151.50;10440096;28;20090;-77
2023/09/25 16:17:37;;;;;;;2.45;1.20;;;;;;;19.14;100.00;102142.31;10440373;28;20052;-77
2023/09/25 16:22:38;;;;;;;1.55;1.00;;;;;;;18.98;100.00;102137.91;10434650;28;20100;-77
2023/09/25 16:27:39;;;;;;;1.92;0.90;;;;;;;18.75;100.00;102154.06;10475341;28;20065;-77
2023/09/25 16:32:39;;;;;;;6.53;1.80;;;;;;;18.23;100.00;102110.47;10479476;28;20033;-77
2023/09/25 16:37:40;;;;;;;4.30;1.27;;;;;;;18.25;100.00;102150.94;10480177;28;20043;-77
2023/09/25 16:42:40;;;;;;;3.13;1.17;;;;;;;18.03;100.00;102159.50;10477015;28;20049;-78
2023/09/25 16:47:40;;;;;;;2.88;1.45;;;;;;;17.88;100.00;102163.06;10479923;28;20246;-75
2023/09/25 16:52:42;;;;;;;3.53;0.90;;;;;;;17.70;100.00;102169.06;10478111;28;20044;-77
2023/09/25 16:57:43;;;;;;;2.67;1.20;;;;;;;17.47;100.00;102189.84;10482086;28;20041;-76
2023/09/25 17:02:45;;;;;;;3.88;1.02;;;;;;;17.19;100.00;102191.84;10478095;28;20036;-77
2023/09/25 17:07:45;;;;;;;4.68;1.60;;;;;;;16.92;100.00;102205.84;10479026;28;20048;-77
2023/09/25 17:12:46;;;;;;;3.60;1.70;;;;;;;16.65;100.00;102215.00;10477146;28;20045;-65
2023/09/25 17:17:46;;;;;;;3.85;1.30;;;;;;;16.40;100.00;102210.03;10476049;28;22724;-76
2023/09/25 17:22:47;;;;;;;2.67;1.17;;;;;;;16.18;100.00;102212.81;10478412;28;20096;-75
2023/09/25 17:27:47;;;;;;;4.07;1.70;;;;;;;15.53;100.00;102147.81;10473540;28;20056;-74
2023/09/25 17:32:48;;;;;;;4.03;1.33;;;;;;;15.76;100.00;102215.34;10469761;28;20041;-74
2023/09/25 17:37:50;;;;;;;2.85;1.42;;;;;;;15.43;100.00;102198.47;10472685;28;20033;-74
2023/09/25 17:42:51;;;;;;;3.10;1.55;;;;;;;15.40;100.00;102215.63;10475546;28;20040;-72
2023/09/25 17:47:51;;;;;;;7.05;2.08;;;;;;;15.28;100.00;102220.44;10476024;28;20437;-75
2023/09/25 17:52:52;;;;;;;3.97;1.25;;;;;;;15.09;100.00;102206.81;10470436;28;20044;-76
2023/09/25 17:57:52;;;;;;;4.03;1.40;;;;;;;15.08;100.00;102220.94;10461618;28;20060;-74
2023/09/25 18:02:53;;;;;;;3.83;1.90;;;;;;;14.99;100.00;102219.69;10475777;28;20044;-73
2023/09/25 18:07:54;;;;;;;4.80;1.40;;;;;;;14.88;100.00;102230.59;10478822;28;20040;-78
2023/09/25 18:12:55;;;;;;;5.57;1.60;;;;;;;14.77;100.00;102238.97;10463815;28;20104;-77
2023/09/25 18:17:56;;;;;;;3.38;1.90;;;;;;;14.66;100.00;102235.19;10484313;28;20123;-70
2023/09/25 18:22:56;;;;;;;3.13;2.00;;;;;;;14.52;100.00;102235.44;10489375;28;20051;-78
2023/09/25 18:27:58;;;;;;;3.60;2.00;;;;;;;14.45;100.00;102231.13;10484852;28;20097;-78
2023/09/25 18:33:00;;;;;;;2.70;1.50;;;;;;;14.35;100.00;102244.81;10485100;28;20043;-78
2023/09/25 18:38:01;;;;;;;1.88;1.17;;;;;;;14.28;100.00;102243.00;10483778;28;20052;-77
2023/09/25 18:43:02;;;;;;;2.60;1.33;;;;;;;14.30;100.00;102251.06;10482645;28;20600;-78
2023/09/25 18:48:03;;;;;;;3.42;1.92;;;;;;;14.27;100.00;102248.78;10483853;28;20037;-77
2023/09/25 18:53:04;;;;;;;4.85;1.80;;;;;;;14.31;100.00;102248.03;10482698;28;20029;-78
2023/09/25 18:58:04;;;;;;;2.72;1.70;;;;;;;14.33;100.00;102245.03;10477670;28;20037;-77
2023/09/25 19:03:05;;;;;;;3.95;1.55;;;;;;;14.30;100.00;102246.38;10487080;28;20032;-77
2023/09/25 19:08:05;;;;;;;6.05;1.60;;;;;;;14.30;100.00;102238.06;10480928;28;20037;-78
2023/09/25 19:13:06;;;;;;;1.90;1.50;;;;;;;14.30;100.00;102243.63;10482802;28;20115;-77
2023/09/25 19:18:08;;;;;;;6.68;2.00;;;;;;;14.24;100.00;102241.81;10482919;28;20051;-76
2023/09/25 19:23:09;;;;;;;3.97;2.00;;;;;;;14.31;100.00;102242.50;10481974;28;20037;-78
2023/09/25 19:28:10;;;;;;;3.75;2.00;;;;;;;14.28;100.00;102231.94;10478966;28;20041;-76
2023/09/25 19:33:11;;;;;;;3.05;1.83;;;;;;;14.44;100.00;102246.06;10480242;28;20036;-77
2023/09/25 19:38:11;;;;;;;3.60;2.63;;;;;;;14.52;100.00;102262.31;10478742;28;20044;-78
2023/09/25 19:43:12;;;;;;;4.28;2.33;;;;;;;14.58;100.00;102260.53;10478386;28;20036;-75
2023/09/25 19:48:12;;;;;;;3.65;1.73;;;;;;;14.68;100.00;102261.56;10480412;28;20051;-77
2023/09/25 19:53:13;;;;;;;4.10;1.92;;;;;;;14.78;100.00;102257.28;10481264;28;20041;-77
2023/09/25 19:58:13;;;;;;;3.40;2.03;;;;;;;14.79;100.00;102242.34;10479321;28;20044;-77
2023/09/25 20:03:13;;;;;;;3.20;2.10;;;;;;;14.87;100.00;102262.19;10480742;28;20045;-77
2023/09/25 20:08:17;;;;;;;3.90;2.30;;;;;;;14.90;100.00;102255.28;10457764;28;20064;-78
2023/09/25 20:13:17;;;;;;;6.97;2.20;;;;;;;14.88;100.00;102249.16;10478358;28;20040;-77
2023/09/25 20:18:18;;;;;;;3.72;2.40;;;;;;;14.88;100.00;102252.78;10455682;28;20041;-78
2023/09/25 20:23:18;;;;;;;4.28;2.47;;;;;;;14.85;100.00;102252.44;10455657;28;20073;-77
2023/09/25 20:28:19;;;;;;;4.13;2.42;;;;;;;14.79;100.00;102243.16;10443203;28;20124;-78
2023/09/25 20:33:19;;;;;;;3.65;2.78;;;;;;;14.76;100.00;102265.00;10463104;28;20044;-75
2023/09/25 20:38:20;;;;;;;3.85;3.05;;;;;;;14.73;100.00;102266.34;10462264;28;20029;-77
2023/09/25 20:43:20;;;;;;;4.22;2.92;;;;;;;14.70;100.00;102264.91;10468087;28;20164;-78
2023/09/25 20:48:21;;;;;;;4.55;3.38;;;;;;;14.60;100.00;102255.56;10481371;28;20033;-76
2023/09/25 20:53:21;;;;;;;3.85;2.95;;;;;;;14.62;100.00;102259.78;10444065;28;20033;-77
2023/09/25 20:58:22;;;;;;;6.25;3.78;;;;;;;14.68;100.00;102269.03;10481330;28;20048;-77
2023/09/25 21:03:22;;;;;;;5.18;3.25;;;;;;;14.70;100.00;102273.22;10481080;28;20044;-77
2023/09/25 21:08:23;;;;;;;5.38;3.40;;;;;;;14.77;100.00;102272.25;10442735;28;20048;-77
2023/09/25 21:13:24;;;;;;;7.22;3.88;;;;;;;14.80;100.00;102263.41;10464535;28;20057;-78
2023/09/25 21:18:24;;;;;;;4.97;3.80;;;;;;;14.85;100.00;102269.06;10469421;28;20041;-78
2023/09/25 21:23:25;;;;;;;8.20;3.67;;;;;;;14.81;100.00;102251.25;10476170;28;20048;-70
2023/09/25 21:28:25;;;;;;;5.15;2.95;;;;;;;14.86;100.00;102259.66;10469579;28;20044;-78
2023/09/25 21:33:26;;;;;;;6.45;3.40;;;;;;;14.83;100.00;102260.16;10451295;28;20041;-78
2023/09/25 21:38:26;;;;;;;5.20;3.55;;;;;;;14.86;100.00;102259.66;10477980;28;20040;-78
2023/09/25 21:43:27;;;;;;;5.07;3.65;;;;;;;14.89;100.00;102260.00;10459716;28;20455;-77
2023/09/25 21:48:27;;;;;;;5.15;3.65;;;;;;;14.89;100.00;102260.00;10473680;28;20413;-78
2023/09/25 21:53:27;;;;;;;5.65;3.85;;;;;;;14.92;100.00;102253.09;10473728;28;20037;-78
2023/09/25 21:58:28;;;;;;;5.45;3.28;;;;;;;14.91;100.00;102254.22;10477126;28;20111;-78
2023/09/25 22:03:28;;;;;;;4.47;3.45;;;;;;;14.94;100.00;102250.91;10469174;28;20047;-78
2023/09/25 22:08:29;;;;;;;6.45;3.83;;;;;;;14.96;100.00;102253.44;10466626;28;20040;-77
2023/09/25 22:13:30;;;;;;;5.45;4.03;;;;;;;14.97;100.00;102244.88;10466732;28;20236;-77
2023/09/25 22:18:32;;;;;;;5.43;3.40;;;;;;;14.97;100.00;102261.53;10460818;28;20083;-77
2023/09/25 22:23:34;;;;;;;7.65;4.03;;;;;;;15.00;100.00;102255.47;10470452;28;20460;-77
2023/09/25 22:28:35;;;;;;;8.60;4.38;;;;;;;14.98;100.00;102248.50;10481921;28;20560;-78
2023/09/25 22:33:36;;;;;;;4.85;3.42;;;;;;;14.98;100.00;102256.81;10482633;28;20066;-78
2023/09/25 22:38:37;;;;;;;6.72;4.13;;;;;;;14.96;100.00;102254.28;10483648;28;20476;-77
2023/09/25 22:43:37;;;;;;;6.50;3.80;;;;;;;14.96;100.00;102254.28;10487985;28;20032;-77
2023/09/25 22:48:38;;;;;;;6.32;4.25;;;;;;;14.95;100.00;102252.63;10478199;28;20041;-77